sensor_id;sensor_type;location;lat;lon;timestamp;P1;durP1;ratioP1;P2;durP2;ratioP2
14247;SDS011;7208;49.826;6.004;2023-02-21T00:02:41;11.87;;;8.23;;
14247;SDS011;7208;49.826;6.004;2023-02-21T00:05:26;11.20;;;7.23;;
14247;SDS011;7208;49.826;6.004;2023-02-21T00:08:10;15.50;;;8.63;;
14247;SDS011;7208;49.826;6.004;2023-02-21T00:10:55;13.87;;;7.97;;
14247;SDS011;7208;49.826;6.004;2023-02-21T00:13:40;9.80;;;8.00;;
14247;SDS011;7208;49.826;6.004;2023-02-21T00:16:24;11.63;;;9.30;;
14247;SDS011;7208;49.826;6.004;2023-02-21T00:19:09;13.23;;;9.40;;
14247;SDS011;7208;49.826;6.004;2023-02-21T00:21:53;11.53;;;8.87;;
14247;SDS011;7208;49.826;6.004;2023-02-21T00:24:38;8.27;;;7.13;;
14247;SDS011;7208;49.826;6.004;2023-02-21T00:27:23;10.87;;;9.47;;
14247;SDS011;7208;49.826;6.004;2023-02-21T00:30:08;9.73;;;7.73;;
14247;SDS011;7208;49.826;6.004;2023-02-21T00:32:53;12.17;;;8.83;;
14247;SDS011;7208;49.826;6.004;2023-02-21T00:35:38;9.73;;;8.60;;
14247;SDS011;7208;49.826;6.004;2023-02-21T00:38:22;14.13;;;9.13;;
14247;SDS011;7208;49.826;6.004;2023-02-21T00:41:07;18.53;;;10.90;;
14247;SDS011;7208;49.826;6.004;2023-02-21T00:43:51;14.90;;;10.00;;
14247;SDS011;7208;49.826;6.004;2023-02-21T00:46:36;15.23;;;10.23;;
14247;SDS011;7208;49.826;6.004;2023-02-21T00:49:21;9.13;;;8.23;;
14247;SDS011;7208;49.826;6.004;2023-02-21T00:52:06;8.97;;;8.07;;
14247;SDS011;7208;49.826;6.004;2023-02-21T00:54:51;10.90;;;8.67;;
14247;SDS011;7208;49.826;6.004;2023-02-21T00:57:35;10.07;;;8.63;;
14247;SDS011;7208;49.826;6.004;2023-02-21T01:00:21;10.50;;;8.73;;
14247;SDS011;7208;49.826;6.004;2023-02-21T01:03:06;10.30;;;8.67;;
14247;SDS011;7208;49.826;6.004;2023-02-21T01:05:51;10.97;;;8.47;;
14247;SDS011;7208;49.826;6.004;2023-02-21T01:08:39;18.13;;;8.90;;
14247;SDS011;7208;49.826;6.004;2023-02-21T01:11:24;9.77;;;8.60;;
14247;SDS011;7208;49.826;6.004;2023-02-21T01:14:08;10.80;;;7.87;;
14247;SDS011;7208;49.826;6.004;2023-02-21T01:16:53;21.03;;;11.50;;
14247;SDS011;7208;49.826;6.004;2023-02-21T01:19:38;18.00;;;12.70;;
14247;SDS011;7208;49.826;6.004;2023-02-21T01:22:23;12.17;;;9.80;;
14247;SDS011;7208;49.826;6.004;2023-02-21T01:25:08;11.63;;;9.23;;
14247;SDS011;7208;49.826;6.004;2023-02-21T01:27:53;11.23;;;7.97;;
14247;SDS011;7208;49.826;6.004;2023-02-21T01:30:38;12.13;;;9.33;;
14247;SDS011;7208;49.826;6.004;2023-02-21T01:33:23;11.87;;;8.27;;
14247;SDS011;7208;49.826;6.004;2023-02-21T01:36:08;11.40;;;8.13;;
14247;SDS011;7208;49.826;6.004;2023-02-21T01:38:53;11.50;;;8.57;;
14247;SDS011;7208;49.826;6.004;2023-02-21T01:41:38;15.50;;;8.67;;
14247;SDS011;7208;49.826;6.004;2023-02-21T01:44:33;11.63;;;9.00;;
14247;SDS011;7208;49.826;6.004;2023-02-21T01:47:19;8.97;;;8.07;;
14247;SDS011;7208;49.826;6.004;2023-02-21T01:52:55;9.53;;;6.40;;
14247;SDS011;7208;49.826;6.004;2023-02-21T01:55:39;7.40;;;6.60;;
14247;SDS011;7208;49.826;6.004;2023-02-21T01:58:25;8.43;;;6.60;;
14247;SDS011;7208;49.826;6.004;2023-02-21T02:01:11;11.07;;;7.77;;
14247;SDS011;7208;49.826;6.004;2023-02-21T02:03:58;9.77;;;7.57;;
14247;SDS011;7208;49.826;6.004;2023-02-21T02:06:43;8.53;;;7.63;;
14247;SDS011;7208;49.826;6.004;2023-02-21T02:09:27;8.77;;;7.13;;
14247;SDS011;7208;49.826;6.004;2023-02-21T02:14:50;11.70;;;7.90;;
14247;SDS011;7208;49.826;6.004;2023-02-21T02:27:46;11.27;;;8.97;;
14247;SDS011;7208;49.826;6.004;2023-02-21T02:45:18;12.93;;;9.13;;
14247;SDS011;7208;49.826;6.004;2023-02-21T02:47:49;11.70;;;8.77;;
14247;SDS011;7208;49.826;6.004;2023-02-21T02:50:16;12.03;;;9.13;;
14247;SDS011;7208;49.826;6.004;2023-02-21T02:52:49;11.60;;;8.00;;
14247;SDS011;7208;49.826;6.004;2023-02-21T02:57:59;15.10;;;10.10;;
14247;SDS011;7208;49.826;6.004;2023-02-21T03:00:26;12.50;;;9.07;;
14247;SDS011;7208;49.826;6.004;2023-02-21T03:03:02;14.30;;;8.47;;
14247;SDS011;7208;49.826;6.004;2023-02-21T03:05:38;11.40;;;8.57;;
14247;SDS011;7208;49.826;6.004;2023-02-21T03:08:13;12.67;;;8.13;;
14247;SDS011;7208;49.826;6.004;2023-02-21T03:10:44;12.97;;;7.33;;
14247;SDS011;7208;49.826;6.004;2023-02-21T03:13:14;10.03;;;7.63;;
14247;SDS011;7208;49.826;6.004;2023-02-21T03:18:20;9.87;;;7.60;;
14247;SDS011;7208;49.826;6.004;2023-02-21T03:20:51;7.00;;;6.10;;
14247;SDS011;7208;49.826;6.004;2023-02-21T03:23:19;14.83;;;8.00;;
14247;SDS011;7208;49.826;6.004;2023-02-21T03:25:46;12.10;;;7.77;;
14247;SDS011;7208;49.826;6.004;2023-02-21T03:28:13;10.20;;;7.90;;
14247;SDS011;7208;49.826;6.004;2023-02-21T03:30:42;8.93;;;6.77;;
14247;SDS011;7208;49.826;6.004;2023-02-21T03:33:09;12.63;;;8.03;;
14247;SDS011;7208;49.826;6.004;2023-02-21T03:35:35;9.80;;;7.77;;
14247;SDS011;7208;49.826;6.004;2023-02-21T03:38:01;9.70;;;8.13;;
14247;SDS011;7208;49.826;6.004;2023-02-21T03:40:28;8.87;;;7.57;;
14247;SDS011;7208;49.826;6.004;2023-02-21T03:42:55;9.50;;;7.60;;
14247;SDS011;7208;49.826;6.004;2023-02-21T03:45:21;12.00;;;8.57;;
14247;SDS011;7208;49.826;6.004;2023-02-21T03:47:48;11.97;;;8.33;;
14247;SDS011;7208;49.826;6.004;2023-02-21T03:50:14;10.33;;;7.17;;
14247;SDS011;7208;49.826;6.004;2023-02-21T03:52:40;10.63;;;8.13;;
14247;SDS011;7208;49.826;6.004;2023-02-21T03:55:07;12.70;;;8.10;;
14247;SDS011;7208;49.826;6.004;2023-02-21T03:57:33;13.40;;;8.57;;
14247;SDS011;7208;49.826;6.004;2023-02-21T03:59:59;11.83;;;8.43;;
14247;SDS011;7208;49.826;6.004;2023-02-21T04:02:25;12.83;;;7.47;;
14247;SDS011;7208;49.826;6.004;2023-02-21T04:04:51;14.97;;;7.23;;
14247;SDS011;7208;49.826;6.004;2023-02-21T04:07:18;14.00;;;7.83;;
14247;SDS011;7208;49.826;6.004;2023-02-21T04:09:44;13.13;;;9.73;;
14247;SDS011;7208;49.826;6.004;2023-02-21T04:12:11;12.93;;;9.67;;
14247;SDS011;7208;49.826;6.004;2023-02-21T04:14:37;12.87;;;10.17;;
14247;SDS011;7208;49.826;6.004;2023-02-21T04:17:03;15.27;;;8.97;;
14247;SDS011;7208;49.826;6.004;2023-02-21T04:19:29;12.47;;;9.43;;
14247;SDS011;7208;49.826;6.004;2023-02-21T04:21:55;17.47;;;10.20;;
14247;SDS011;7208;49.826;6.004;2023-02-21T04:24:21;13.83;;;8.40;;
14247;SDS011;7208;49.826;6.004;2023-02-21T04:26:47;11.23;;;7.50;;
14247;SDS011;7208;49.826;6.004;2023-02-21T04:29:13;10.97;;;7.23;;
14247;SDS011;7208;49.826;6.004;2023-02-21T04:31:39;9.20;;;7.13;;
14247;SDS011;7208;49.826;6.004;2023-02-21T04:34:05;9.37;;;6.67;;
14247;SDS011;7208;49.826;6.004;2023-02-21T04:36:31;9.73;;;6.93;;
14247;SDS011;7208;49.826;6.004;2023-02-21T04:38:57;12.67;;;7.53;;
14247;SDS011;7208;49.826;6.004;2023-02-21T04:41:23;11.43;;;8.20;;
14247;SDS011;7208;49.826;6.004;2023-02-21T04:43:49;10.87;;;7.60;;
14247;SDS011;7208;49.826;6.004;2023-02-21T04:46:16;10.10;;;8.33;;
14247;SDS011;7208;49.826;6.004;2023-02-21T04:48:43;10.07;;;7.33;;
14247;SDS011;7208;49.826;6.004;2023-02-21T04:51:10;8.67;;;7.50;;
14247;SDS011;7208;49.826;6.004;2023-02-21T04:53:36;11.30;;;7.13;;
14247;SDS011;7208;49.826;6.004;2023-02-21T04:56:03;8.83;;;7.93;;
14247;SDS011;7208;49.826;6.004;2023-02-21T04:58:29;11.97;;;8.70;;
14247;SDS011;7208;49.826;6.004;2023-02-21T05:00:55;17.80;;;8.63;;
14247;SDS011;7208;49.826;6.004;2023-02-21T05:03:21;17.33;;;9.70;;
14247;SDS011;7208;49.826;6.004;2023-02-21T05:05:48;11.67;;;9.03;;
14247;SDS011;7208;49.826;6.004;2023-02-21T05:08:14;14.57;;;10.90;;
14247;SDS011;7208;49.826;6.004;2023-02-21T05:10:40;14.13;;;10.27;;
14247;SDS011;7208;49.826;6.004;2023-02-21T05:13:06;10.17;;;8.87;;
14247;SDS011;7208;49.826;6.004;2023-02-21T05:15:32;14.87;;;9.10;;
14247;SDS011;7208;49.826;6.004;2023-02-21T05:17:58;13.80;;;9.23;;
14247;SDS011;7208;49.826;6.004;2023-02-21T05:20:24;9.37;;;7.43;;
14247;SDS011;7208;49.826;6.004;2023-02-21T05:22:50;12.33;;;8.40;;
14247;SDS011;7208;49.826;6.004;2023-02-21T05:25:22;9.03;;;7.73;;
14247;SDS011;7208;49.826;6.004;2023-02-21T05:27:49;24.70;;;15.77;;
14247;SDS011;7208;49.826;6.004;2023-02-21T05:30:16;18.53;;;11.60;;
14247;SDS011;7208;49.826;6.004;2023-02-21T05:32:43;11.07;;;8.60;;
14247;SDS011;7208;49.826;6.004;2023-02-21T05:35:09;12.30;;;9.00;;
14247;SDS011;7208;49.826;6.004;2023-02-21T05:37:35;11.33;;;9.33;;
14247;SDS011;7208;49.826;6.004;2023-02-21T05:40:02;14.23;;;9.17;;
14247;SDS011;7208;49.826;6.004;2023-02-21T05:42:29;12.70;;;8.83;;
14247;SDS011;7208;49.826;6.004;2023-02-21T05:44:55;14.33;;;8.97;;
14247;SDS011;7208;49.826;6.004;2023-02-21T05:47:21;12.73;;;8.43;;
14247;SDS011;7208;49.826;6.004;2023-02-21T05:49:47;12.20;;;8.30;;
14247;SDS011;7208;49.826;6.004;2023-02-21T05:52:14;11.07;;;8.87;;
14247;SDS011;7208;49.826;6.004;2023-02-21T05:54:40;12.03;;;8.33;;
14247;SDS011;7208;49.826;6.004;2023-02-21T05:57:06;11.93;;;7.43;;
14247;SDS011;7208;49.826;6.004;2023-02-21T05:59:32;10.97;;;8.03;;
14247;SDS011;7208;49.826;6.004;2023-02-21T06:01:58;10.90;;;8.13;;
14247;SDS011;7208;49.826;6.004;2023-02-21T06:04:24;13.37;;;9.23;;
14247;SDS011;7208;49.826;6.004;2023-02-21T06:06:50;12.60;;;8.30;;
14247;SDS011;7208;49.826;6.004;2023-02-21T06:09:17;14.00;;;8.77;;
14247;SDS011;7208;49.826;6.004;2023-02-21T06:11:44;10.07;;;8.33;;
14247;SDS011;7208;49.826;6.004;2023-02-21T06:14:14;11.83;;;7.53;;
14247;SDS011;7208;49.826;6.004;2023-02-21T06:16:40;12.63;;;8.97;;
14247;SDS011;7208;49.826;6.004;2023-02-21T06:19:07;15.67;;;9.73;;
14247;SDS011;7208;49.826;6.004;2023-02-21T06:21:33;13.70;;;9.90;;
14247;SDS011;7208;49.826;6.004;2023-02-21T06:24:00;15.27;;;9.77;;
14247;SDS011;7208;49.826;6.004;2023-02-21T06:26:26;12.30;;;8.77;;
14247;SDS011;7208;49.826;6.004;2023-02-21T06:28:52;17.90;;;10.43;;
14247;SDS011;7208;49.826;6.004;2023-02-21T06:31:18;13.53;;;9.37;;
14247;SDS011;7208;49.826;6.004;2023-02-21T06:33:45;12.30;;;9.93;;
14247;SDS011;7208;49.826;6.004;2023-02-21T06:36:13;12.13;;;8.90;;
14247;SDS011;7208;49.826;6.004;2023-02-21T06:38:39;9.83;;;7.67;;
14247;SDS011;7208;49.826;6.004;2023-02-21T06:41:05;10.23;;;7.50;;
14247;SDS011;7208;49.826;6.004;2023-02-21T06:43:32;13.10;;;8.50;;
14247;SDS011;7208;49.826;6.004;2023-02-21T06:45:59;15.97;;;8.80;;
14247;SDS011;7208;49.826;6.004;2023-02-21T06:48:25;18.17;;;7.10;;
14247;SDS011;7208;49.826;6.004;2023-02-21T06:50:51;28.90;;;8.57;;
14247;SDS011;7208;49.826;6.004;2023-02-21T06:53:17;17.30;;;8.37;;
14247;SDS011;7208;49.826;6.004;2023-02-21T06:55:43;13.57;;;8.07;;
14247;SDS011;7208;49.826;6.004;2023-02-21T06:58:09;16.57;;;8.53;;
14247;SDS011;7208;49.826;6.004;2023-02-21T07:00:35;19.80;;;9.50;;
14247;SDS011;7208;49.826;6.004;2023-02-21T07:03:01;20.30;;;9.37;;
14247;SDS011;7208;49.826;6.004;2023-02-21T07:05:27;13.83;;;8.57;;
14247;SDS011;7208;49.826;6.004;2023-02-21T07:07:58;16.10;;;8.17;;
14247;SDS011;7208;49.826;6.004;2023-02-21T07:10:24;15.73;;;8.70;;
14247;SDS011;7208;49.826;6.004;2023-02-21T07:12:50;8.33;;;6.93;;
14247;SDS011;7208;49.826;6.004;2023-02-21T07:15:16;8.43;;;6.37;;
14247;SDS011;7208;49.826;6.004;2023-02-21T07:17:42;11.27;;;8.43;;
14247;SDS011;7208;49.826;6.004;2023-02-21T07:20:08;10.43;;;7.30;;
14247;SDS011;7208;49.826;6.004;2023-02-21T07:22:34;10.37;;;7.70;;
14247;SDS011;7208;49.826;6.004;2023-02-21T07:25:00;10.23;;;7.27;;
14247;SDS011;7208;49.826;6.004;2023-02-21T07:27:26;7.77;;;6.53;;
14247;SDS011;7208;49.826;6.004;2023-02-21T07:29:52;8.57;;;7.27;;
14247;SDS011;7208;49.826;6.004;2023-02-21T07:32:18;11.73;;;8.00;;
14247;SDS011;7208;49.826;6.004;2023-02-21T07:34:45;13.90;;;8.73;;
14247;SDS011;7208;49.826;6.004;2023-02-21T07:37:12;14.67;;;9.53;;
14247;SDS011;7208;49.826;6.004;2023-02-21T07:39:38;13.53;;;9.53;;
14247;SDS011;7208;49.826;6.004;2023-02-21T07:42:04;12.63;;;8.40;;
14247;SDS011;7208;49.826;6.004;2023-02-21T07:44:32;21.03;;;11.53;;
14247;SDS011;7208;49.826;6.004;2023-02-21T07:46:58;17.20;;;9.83;;
14247;SDS011;7208;49.826;6.004;2023-02-21T07:49:24;17.97;;;9.20;;
14247;SDS011;7208;49.826;6.004;2023-02-21T07:51:50;16.50;;;11.07;;
14247;SDS011;7208;49.826;6.004;2023-02-21T07:54:16;16.70;;;9.97;;
14247;SDS011;7208;49.826;6.004;2023-02-21T07:56:43;15.83;;;11.00;;
14247;SDS011;7208;49.826;6.004;2023-02-21T07:59:09;17.97;;;11.43;;
14247;SDS011;7208;49.826;6.004;2023-02-21T08:01:35;19.77;;;10.80;;
14247;SDS011;7208;49.826;6.004;2023-02-21T08:04:01;16.70;;;10.43;;
14247;SDS011;7208;49.826;6.004;2023-02-21T08:06:27;19.20;;;11.63;;
14247;SDS011;7208;49.826;6.004;2023-02-21T08:08:53;16.17;;;11.77;;
14247;SDS011;7208;49.826;6.004;2023-02-21T08:11:19;15.77;;;11.53;;
14247;SDS011;7208;49.826;6.004;2023-02-21T08:13:46;15.83;;;11.37;;
14247;SDS011;7208;49.826;6.004;2023-02-21T08:16:12;16.10;;;10.73;;
14247;SDS011;7208;49.826;6.004;2023-02-21T08:18:38;16.50;;;11.83;;
14247;SDS011;7208;49.826;6.004;2023-02-21T08:21:06;20.20;;;12.60;;
14247;SDS011;7208;49.826;6.004;2023-02-21T08:23:33;21.03;;;13.83;;
14247;SDS011;7208;49.826;6.004;2023-02-21T08:25:59;20.70;;;13.23;;
14247;SDS011;7208;49.826;6.004;2023-02-21T08:28:25;23.27;;;14.80;;
14247;SDS011;7208;49.826;6.004;2023-02-21T08:30:51;33.37;;;20.33;;
14247;SDS011;7208;49.826;6.004;2023-02-21T08:33:17;41.57;;;28.00;;
14247;SDS011;7208;49.826;6.004;2023-02-21T08:35:43;46.10;;;28.77;;
14247;SDS011;7208;49.826;6.004;2023-02-21T08:38:09;29.97;;;20.87;;
14247;SDS011;7208;49.826;6.004;2023-02-21T08:40:35;28.53;;;20.77;;
14247;SDS011;7208;49.826;6.004;2023-02-21T08:43:01;34.83;;;22.80;;
14247;SDS011;7208;49.826;6.004;2023-02-21T08:45:29;24.83;;;16.90;;
14247;SDS011;7208;49.826;6.004;2023-02-21T08:47:56;24.37;;;17.57;;
14247;SDS011;7208;49.826;6.004;2023-02-21T08:50:23;24.10;;;18.27;;
14247;SDS011;7208;49.826;6.004;2023-02-21T08:52:49;19.90;;;16.40;;
14247;SDS011;7208;49.826;6.004;2023-02-21T08:55:16;18.50;;;14.80;;
14247;SDS011;7208;49.826;6.004;2023-02-21T08:57:43;16.80;;;15.10;;
14247;SDS011;7208;49.826;6.004;2023-02-21T09:00:09;13.47;;;12.03;;
14247;SDS011;7208;49.826;6.004;2023-02-21T09:02:36;14.93;;;13.37;;
14247;SDS011;7208;49.826;6.004;2023-02-21T09:07:32;12.83;;;11.00;;
14247;SDS011;7208;49.826;6.004;2023-02-21T09:09:58;13.47;;;11.83;;
14247;SDS011;7208;49.826;6.004;2023-02-21T09:12:24;13.30;;;12.00;;
14247;SDS011;7208;49.826;6.004;2023-02-21T09:14:50;14.37;;;12.37;;
14247;SDS011;7208;49.826;6.004;2023-02-21T09:17:16;12.93;;;11.63;;
14247;SDS011;7208;49.826;6.004;2023-02-21T09:19:42;13.03;;;11.70;;
14247;SDS011;7208;49.826;6.004;2023-02-21T09:22:09;14.87;;;11.97;;
14247;SDS011;7208;49.826;6.004;2023-02-21T09:24:35;13.83;;;12.57;;
14247;SDS011;7208;49.826;6.004;2023-02-21T09:27:01;14.70;;;13.27;;
14247;SDS011;7208;49.826;6.004;2023-02-21T09:29:28;14.17;;;12.87;;
14247;SDS011;7208;49.826;6.004;2023-02-21T09:31:55;12.63;;;11.43;;
14247;SDS011;7208;49.826;6.004;2023-02-21T09:34:20;12.00;;;10.67;;
14247;SDS011;7208;49.826;6.004;2023-02-21T09:36:47;10.47;;;9.47;;
14247;SDS011;7208;49.826;6.004;2023-02-21T09:39:15;12.63;;;11.33;;
14247;SDS011;7208;49.826;6.004;2023-02-21T09:41:41;11.00;;;9.83;;
14247;SDS011;7208;49.826;6.004;2023-02-21T09:44:12;11.83;;;10.73;;
14247;SDS011;7208;49.826;6.004;2023-02-21T09:46:41;10.50;;;9.50;;
14247;SDS011;7208;49.826;6.004;2023-02-21T09:51:47;11.37;;;10.20;;
14247;SDS011;7208;49.826;6.004;2023-02-21T09:54:18;13.07;;;10.60;;
14247;SDS011;7208;49.826;6.004;2023-02-21T09:56:46;11.40;;;10.27;;
14247;SDS011;7208;49.826;6.004;2023-02-21T09:59:12;11.47;;;10.37;;
14247;SDS011;7208;49.826;6.004;2023-02-21T10:09:37;10.70;;;9.80;;
14247;SDS011;7208;49.826;6.004;2023-02-21T10:12:07;11.00;;;9.93;;
14247;SDS011;7208;49.826;6.004;2023-02-21T10:17:32;11.13;;;10.13;;
14247;SDS011;7208;49.826;6.004;2023-02-21T10:20:03;10.20;;;9.27;;
14247;SDS011;7208;49.826;6.004;2023-02-21T10:22:33;11.93;;;10.73;;
14247;SDS011;7208;49.826;6.004;2023-02-21T10:25:00;11.13;;;10.20;;
14247;SDS011;7208;49.826;6.004;2023-02-21T10:27:26;11.60;;;10.57;;
14247;SDS011;7208;49.826;6.004;2023-02-21T10:29:56;11.40;;;10.30;;
14247;SDS011;7208;49.826;6.004;2023-02-21T10:32:24;12.40;;;11.27;;
14247;SDS011;7208;49.826;6.004;2023-02-21T10:34:51;10.40;;;9.43;;
14247;SDS011;7208;49.826;6.004;2023-02-21T10:38:01;11.50;;;10.50;;
14247;SDS011;7208;49.826;6.004;2023-02-21T10:42:36;11.20;;;10.00;;
14247;SDS011;7208;49.826;6.004;2023-02-21T10:45:03;10.67;;;9.57;;
14247;SDS011;7208;49.826;6.004;2023-02-21T10:50:05;9.33;;;8.50;;
14247;SDS011;7208;49.826;6.004;2023-02-21T10:52:36;9.13;;;8.37;;
14247;SDS011;7208;49.826;6.004;2023-02-21T10:55:04;9.70;;;8.77;;
14247;SDS011;7208;49.826;6.004;2023-02-21T10:57:36;10.07;;;9.17;;
14247;SDS011;7208;49.826;6.004;2023-02-21T11:00:04;10.10;;;9.10;;
14247;SDS011;7208;49.826;6.004;2023-02-21T11:02:35;9.80;;;8.93;;
14247;SDS011;7208;49.826;6.004;2023-02-21T11:05:13;9.10;;;8.20;;
14247;SDS011;7208;49.826;6.004;2023-02-21T11:07:41;8.67;;;7.93;;
14247;SDS011;7208;49.826;6.004;2023-02-21T11:10:23;8.97;;;8.07;;
14247;SDS011;7208;49.826;6.004;2023-02-21T11:13:35;9.00;;;8.20;;
14247;SDS011;7208;49.826;6.004;2023-02-21T11:15:36;7.90;;;7.30;;
14247;SDS011;7208;49.826;6.004;2023-02-21T11:18:03;8.73;;;7.93;;
14247;SDS011;7208;49.826;6.004;2023-02-21T11:20:30;8.43;;;7.73;;
14247;SDS011;7208;49.826;6.004;2023-02-21T11:22:56;7.77;;;7.07;;
14247;SDS011;7208;49.826;6.004;2023-02-21T11:28:00;7.40;;;6.80;;
14247;SDS011;7208;49.826;6.004;2023-02-21T11:30:27;8.27;;;7.47;;
14247;SDS011;7208;49.826;6.004;2023-02-21T11:32:55;7.47;;;6.73;;
14247;SDS011;7208;49.826;6.004;2023-02-21T11:35:43;7.93;;;7.23;;
14247;SDS011;7208;49.826;6.004;2023-02-21T11:38:10;7.43;;;6.73;;
14247;SDS011;7208;49.826;6.004;2023-02-21T11:40:53;7.20;;;6.60;;
14247;SDS011;7208;49.826;6.004;2023-02-21T11:43:21;7.33;;;6.63;;
14247;SDS011;7208;49.826;6.004;2023-02-21T11:45:54;7.10;;;6.50;;
14247;SDS011;7208;49.826;6.004;2023-02-21T11:48:23;6.17;;;5.67;;
14247;SDS011;7208;49.826;6.004;2023-02-21T11:50:55;4.80;;;4.40;;
14247;SDS011;7208;49.826;6.004;2023-02-21T11:53:29;5.00;;;4.60;;
14247;SDS011;7208;49.826;6.004;2023-02-21T11:58:31;5.23;;;4.73;;
14247;SDS011;7208;49.826;6.004;2023-02-21T12:01:00;5.80;;;5.30;;
14247;SDS011;7208;49.826;6.004;2023-02-21T12:05:57;5.10;;;4.60;;
14247;SDS011;7208;49.826;6.004;2023-02-21T12:11:05;4.50;;;4.10;;
14247;SDS011;7208;49.826;6.004;2023-02-21T12:21:47;4.60;;;4.20;;
14247;SDS011;7208;49.826;6.004;2023-02-21T12:27:18;4.60;;;4.20;;
14247;SDS011;7208;49.826;6.004;2023-02-21T12:37:25;2.97;;;2.77;;
14247;SDS011;7208;49.826;6.004;2023-02-21T12:40:01;2.80;;;2.60;;
14247;SDS011;7208;49.826;6.004;2023-02-21T12:47:23;3.50;;;3.20;;
14247;SDS011;7208;49.826;6.004;2023-02-21T12:57:30;2.60;;;2.40;;
14247;SDS011;7208;49.826;6.004;2023-02-21T13:05:17;2.60;;;2.23;;
14247;SDS011;7208;49.826;6.004;2023-02-21T13:07:45;2.60;;;2.40;;
14247;SDS011;7208;49.826;6.004;2023-02-21T13:10:18;2.83;;;2.63;;
14247;SDS011;7208;49.826;6.004;2023-02-21T13:12:50;3.00;;;2.80;;
14247;SDS011;7208;49.826;6.004;2023-02-21T13:15:18;2.73;;;2.53;;
14247;SDS011;7208;49.826;6.004;2023-02-21T13:17:50;2.80;;;2.60;;
14247;SDS011;7208;49.826;6.004;2023-02-21T13:20:18;2.73;;;2.53;;
14247;SDS011;7208;49.826;6.004;2023-02-21T13:28:26;3.53;;;3.23;;
14247;SDS011;7208;49.826;6.004;2023-02-21T13:30:57;3.93;;;3.63;;
14247;SDS011;7208;49.826;6.004;2023-02-21T13:33:47;3.07;;;2.77;;
14247;SDS011;7208;49.826;6.004;2023-02-21T13:38:42;3.27;;;3.07;;
14247;SDS011;7208;49.826;6.004;2023-02-21T13:41:08;3.73;;;3.47;;
14247;SDS011;7208;49.826;6.004;2023-02-21T13:43:36;3.33;;;3.10;;
14247;SDS011;7208;49.826;6.004;2023-02-21T13:49:34;3.10;;;2.80;;
14247;SDS011;7208;49.826;6.004;2023-02-21T13:51:56;2.87;;;2.60;;
14247;SDS011;7208;49.826;6.004;2023-02-21T13:54:22;2.43;;;2.23;;
14247;SDS011;7208;49.826;6.004;2023-02-21T13:56:48;3.27;;;2.57;;
14247;SDS011;7208;49.826;6.004;2023-02-21T14:01:50;2.57;;;2.37;;
14247;SDS011;7208;49.826;6.004;2023-02-21T14:07:01;2.80;;;2.60;;
14247;SDS011;7208;49.826;6.004;2023-02-21T14:09:27;2.90;;;2.63;;
14247;SDS011;7208;49.826;6.004;2023-02-21T14:11:53;2.40;;;2.20;;
14247;SDS011;7208;49.826;6.004;2023-02-21T14:14:27;3.13;;;2.77;;
14247;SDS011;7208;49.826;6.004;2023-02-21T14:17:01;3.47;;;2.40;;
14247;SDS011;7208;49.826;6.004;2023-02-21T14:19:32;3.47;;;2.50;;
14247;SDS011;7208;49.826;6.004;2023-02-21T14:22:10;2.40;;;2.20;;
14247;SDS011;7208;49.826;6.004;2023-02-21T14:24:38;2.70;;;2.50;;
14247;SDS011;7208;49.826;6.004;2023-02-21T14:37:02;2.03;;;1.83;;
14247;SDS011;7208;49.826;6.004;2023-02-21T14:39:33;1.83;;;1.50;;
14247;SDS011;7208;49.826;6.004;2023-02-21T14:42:07;1.50;;;1.40;;
14247;SDS011;7208;49.826;6.004;2023-02-21T14:50:08;1.30;;;1.20;;
14247;SDS011;7208;49.826;6.004;2023-02-21T14:53:25;1.13;;;1.03;;
14247;SDS011;7208;49.826;6.004;2023-02-21T15:01:20;1.00;;;0.80;;
14247;SDS011;7208;49.826;6.004;2023-02-21T15:04:07;0.80;;;0.80;;
14247;SDS011;7208;49.826;6.004;2023-02-21T15:06:38;0.90;;;0.90;;
14247;SDS011;7208;49.826;6.004;2023-02-21T15:09:12;1.20;;;1.07;;
14247;SDS011;7208;49.826;6.004;2023-02-21T15:11:38;0.50;;;0.50;;
14247;SDS011;7208;49.826;6.004;2023-02-21T15:14:18;1.13;;;0.70;;
14247;SDS011;7208;49.826;6.004;2023-02-21T15:16:55;0.90;;;0.90;;
14247;SDS011;7208;49.826;6.004;2023-02-21T15:19:26;1.60;;;0.87;;
14247;SDS011;7208;49.826;6.004;2023-02-21T15:24:37;1.17;;;0.83;;
14247;SDS011;7208;49.826;6.004;2023-02-21T15:27:10;0.80;;;0.80;;
14247;SDS011;7208;49.826;6.004;2023-02-21T15:29:37;0.73;;;0.73;;
14247;SDS011;7208;49.826;6.004;2023-02-21T15:32:03;0.87;;;0.80;;
14247;SDS011;7208;49.826;6.004;2023-02-21T15:34:36;0.60;;;0.60;;
14247;SDS011;7208;49.826;6.004;2023-02-21T15:39:49;0.60;;;0.60;;
14247;SDS011;7208;49.826;6.004;2023-02-21T15:42:16;0.70;;;0.70;;
14247;SDS011;7208;49.826;6.004;2023-02-21T15:44:45;1.00;;;0.90;;
14247;SDS011;7208;49.826;6.004;2023-02-21T15:47:14;1.00;;;0.90;;
14247;SDS011;7208;49.826;6.004;2023-02-21T15:52:11;1.67;;;1.20;;
14247;SDS011;7208;49.826;6.004;2023-02-21T15:54:50;0.87;;;0.87;;
14247;SDS011;7208;49.826;6.004;2023-02-21T15:57:36;0.70;;;0.70;;
14247;SDS011;7208;49.826;6.004;2023-02-21T16:01:04;2.20;;;0.77;;
14247;SDS011;7208;49.826;6.004;2023-02-21T16:05:43;1.37;;;1.13;;
14247;SDS011;7208;49.826;6.004;2023-02-21T16:08:12;0.70;;;0.70;;
14247;SDS011;7208;49.826;6.004;2023-02-21T16:10:40;1.30;;;0.80;;
14247;SDS011;7208;49.826;6.004;2023-02-21T16:13:07;1.50;;;1.27;;
14247;SDS011;7208;49.826;6.004;2023-02-21T16:15:34;0.67;;;0.67;;
14247;SDS011;7208;49.826;6.004;2023-02-21T16:18:07;0.90;;;0.90;;
14247;SDS011;7208;49.826;6.004;2023-02-21T16:28:20;1.93;;;1.20;;
14247;SDS011;7208;49.826;6.004;2023-02-21T16:30:46;0.97;;;0.83;;
14247;SDS011;7208;49.826;6.004;2023-02-21T16:33:12;1.20;;;1.10;;
14247;SDS011;7208;49.826;6.004;2023-02-21T16:35:38;1.10;;;1.00;;
14247;SDS011;7208;49.826;6.004;2023-02-21T16:38:04;0.87;;;0.87;;
14247;SDS011;7208;49.826;6.004;2023-02-21T16:40:33;1.30;;;1.20;;
14247;SDS011;7208;49.826;6.004;2023-02-21T16:43:00;1.23;;;1.10;;
14247;SDS011;7208;49.826;6.004;2023-02-21T16:45:27;1.77;;;1.00;;
14247;SDS011;7208;49.826;6.004;2023-02-21T16:48:05;1.00;;;1.00;;
14247;SDS011;7208;49.826;6.004;2023-02-21T16:50:33;1.23;;;0.90;;
14247;SDS011;7208;49.826;6.004;2023-02-21T16:52:59;1.00;;;0.90;;
14247;SDS011;7208;49.826;6.004;2023-02-21T16:55:25;1.73;;;1.03;;
14247;SDS011;7208;49.826;6.004;2023-02-21T16:57:53;3.83;;;0.90;;
14247;SDS011;7208;49.826;6.004;2023-02-21T17:00:20;1.40;;;0.70;;
14247;SDS011;7208;49.826;6.004;2023-02-21T17:02:50;0.80;;;0.80;;
14247;SDS011;7208;49.826;6.004;2023-02-21T17:05:17;0.80;;;0.80;;
14247;SDS011;7208;49.826;6.004;2023-02-21T17:07:43;2.03;;;1.00;;
14247;SDS011;7208;49.826;6.004;2023-02-21T17:10:09;0.77;;;0.70;;
14247;SDS011;7208;49.826;6.004;2023-02-21T17:12:36;1.03;;;0.93;;
14247;SDS011;7208;49.826;6.004;2023-02-21T17:15:02;0.97;;;0.80;;
14247;SDS011;7208;49.826;6.004;2023-02-21T17:17:28;0.90;;;0.90;;
14247;SDS011;7208;49.826;6.004;2023-02-21T17:19:54;2.33;;;1.23;;
14247;SDS011;7208;49.826;6.004;2023-02-21T17:22:20;2.20;;;1.50;;
14247;SDS011;7208;49.826;6.004;2023-02-21T17:24:46;1.90;;;1.60;;
14247;SDS011;7208;49.826;6.004;2023-02-21T17:27:12;2.50;;;2.27;;
14247;SDS011;7208;49.826;6.004;2023-02-21T17:29:38;3.23;;;2.10;;
14247;SDS011;7208;49.826;6.004;2023-02-21T17:32:04;2.80;;;2.30;;
14247;SDS011;7208;49.826;6.004;2023-02-21T17:34:33;4.63;;;2.90;;
14247;SDS011;7208;49.826;6.004;2023-02-21T17:36:59;2.63;;;1.93;;
14247;SDS011;7208;49.826;6.004;2023-02-21T17:39:25;3.88;;;3.45;;
14247;SDS011;7208;49.826;6.004;2023-02-21T17:41:52;4.23;;;2.73;;
14247;SDS011;7208;49.826;6.004;2023-02-21T17:44:18;5.03;;;2.67;;
14247;SDS011;7208;49.826;6.004;2023-02-21T17:46:45;2.95;;;2.42;;
14247;SDS011;7208;49.826;6.004;2023-02-21T17:49:12;2.40;;;1.93;;
14247;SDS011;7208;49.826;6.004;2023-02-21T17:51:38;1.63;;;1.53;;